createdAt,value
2019-05-17T00:04:49.698Z,100645.42
2019-05-17T00:07:18.382Z,100638.16
2019-05-17T00:09:47.973Z,100644.80
2019-05-17T00:12:17.876Z,100642.23
2019-05-17T00:17:19.257Z,100625.80
2019-05-17T00:22:29.263Z,100630.16
2019-05-17T00:24:58.305Z,100630.09
2019-05-17T00:27:27.708Z,100625.67
2019-05-17T00:29:57.240Z,100617.67
2019-05-17T00:32:27.446Z,100620.89
2019-05-17T00:37:37.378Z,100607.03
2019-05-17T00:40:07.722Z,100617.36
2019-05-17T00:42:37.414Z,100607.64
2019-05-17T00:45:06.917Z,100602.16
2019-05-17T00:47:37.422Z,100605.12
2019-05-17T00:50:07.542Z,100601.50
2019-05-17T00:52:36.996Z,100604.15
2019-05-17T00:55:06.879Z,100602.16
2019-05-17T01:00:17.047Z,100601.50
2019-05-17T01:05:32.302Z,100598.80
2019-05-17T01:08:03.138Z,100598.66
2019-05-17T01:10:32.868Z,100594.42
2019-05-17T01:15:41.260Z,100591.20
2019-05-17T01:18:09.996Z,100594.50
2019-05-17T01:20:38.640Z,100589.22
2019-05-17T01:23:07.904Z,100585.26
2019-05-17T01:25:37.296Z,100587.08
2019-05-17T01:30:47.414Z,100578.58
2019-05-17T01:33:17.077Z,100586.30
2019-05-17T01:35:46.680Z,100577.98
2019-05-17T01:38:17.735Z,100577.98
2019-05-17T01:40:46.524Z,100573.24
2019-05-17T01:43:16.690Z,100571.78
2019-05-17T01:45:48.070Z,100575.42
2019-05-17T01:48:17.093Z,100571.39
2019-05-17T01:50:46.487Z,100567.89
2019-05-17T01:53:16.594Z,100563.92
2019-05-17T01:55:46.593Z,100559.89
2019-05-17T01:58:16.382Z,100556.55
2019-05-17T02:00:46.516Z,100555.61
2019-05-17T02:03:17.341Z,100552.90
2019-05-17T02:08:26.428Z,100550.11
2019-05-17T02:10:57.368Z,100551.97
2019-05-17T02:13:26.806Z,100556.55
2019-05-17T02:15:56.420Z,100553.02
2019-05-17T02:18:26.663Z,100551.45
2019-05-17T02:20:57.095Z,100559.48
2019-05-17T02:23:27.025Z,100556.60
2019-05-17T02:25:57.202Z,100557.46
2019-05-17T02:28:26.120Z,100551.71
2019-05-17T02:30:55.605Z,100554.89
2019-05-17T02:33:25.031Z,100558.39
2019-05-17T02:38:33.231Z,100553.03
2019-05-17T02:41:03.203Z,100551.56
2019-05-17T02:46:13.598Z,100545.83
2019-05-17T02:48:43.056Z,100548.94
2019-05-17T02:51:13.169Z,100550.84
2019-05-17T02:53:42.898Z,100550.52
2019-05-17T02:56:13.395Z,100552.31
2019-05-17T02:58:43.929Z,100551.19
2019-05-17T03:03:52.918Z,100551.19
2019-05-17T03:06:22.808Z,100552.77
2019-05-17T03:08:52.499Z,100549.86
2019-05-17T03:14:03.932Z,100547.61
2019-05-17T03:16:33.913Z,100547.22
2019-05-17T03:19:04.193Z,100547.36
2019-05-17T03:21:33.763Z,100547.47
2019-05-17T03:24:03.405Z,100553.14
2019-05-17T03:26:32.951Z,100557.03
2019-05-17T03:29:22.785Z,100560.55
2019-05-17T03:31:59.464Z,100558.95
2019-05-17T03:37:06.165Z,100555.53
2019-05-17T03:39:33.904Z,100559.31
2019-05-17T03:42:02.827Z,100558.53
2019-05-17T03:44:33.252Z,100563.53
2019-05-17T03:49:43.683Z,100564.34
2019-05-17T03:52:13.525Z,100569.48
2019-05-17T03:54:42.989Z,100570.52
2019-05-17T03:59:52.519Z,100571.91
2019-05-17T04:02:23.038Z,100572.61
2019-05-17T04:04:53.081Z,100577.49
2019-05-17T04:07:23.560Z,100577.20
2019-05-17T04:12:33.137Z,100573.78
2019-05-17T04:15:03.218Z,100571.31
2019-05-17T04:17:32.928Z,100568.85
2019-05-17T04:20:03.918Z,100565.20
2019-05-17T04:22:33.515Z,100566.35
2019-05-17T04:25:03.078Z,100569.70
2019-05-17T04:27:32.783Z,100570.56
2019-05-17T04:32:39.223Z,100565.58
2019-05-17T04:35:07.967Z,100569.53
2019-05-17T04:37:38.634Z,100568.30
2019-05-17T04:40:08.435Z,100573.69
2019-05-17T04:42:37.252Z,100579.22
2019-05-17T04:45:06.902Z,100576.19
2019-05-17T04:47:36.321Z,100578.32
2019-05-17T04:50:05.198Z,100579.88
2019-05-17T04:52:33.942Z,100574.08
2019-05-17T04:55:04.331Z,100576.21
2019-05-17T05:00:14.052Z,100577.25
2019-05-17T05:02:43.975Z,100581.59
2019-05-17T05:05:14.609Z,100578.92
2019-05-17T05:07:43.990Z,100577.75
2019-05-17T05:10:13.926Z,100578.52
2019-05-17T05:12:44.215Z,100576.42
2019-05-17T05:15:13.917Z,100573.95
2019-05-17T05:17:43.060Z,100578.38
2019-05-17T05:20:13.694Z,100578.12
2019-05-17T05:22:43.305Z,100579.99
2019-05-17T05:25:12.834Z,100580.65
2019-05-17T05:30:19.308Z,100581.95
2019-05-17T05:35:32.789Z,100579.14
2019-05-17T05:38:02.601Z,100576.80
2019-05-17T05:40:32.080Z,100573.53
2019-05-17T05:45:41.712Z,100560.01
2019-05-17T05:48:12.943Z,100569.07
2019-05-17T05:53:18.747Z,100564.66
2019-05-17T05:55:47.607Z,100570.33
2019-05-17T05:58:16.645Z,100559.36
2019-05-17T06:03:22.857Z,100557.11
2019-05-17T06:05:52.509Z,100559.48
2019-05-17T06:08:22.674Z,100556.08
2019-05-17T06:10:53.140Z,100558.55
2019-05-17T06:13:22.786Z,100548.75
2019-05-17T06:18:31.865Z,100546.42
2019-05-17T06:21:02.992Z,100545.22
2019-05-17T06:23:33.106Z,100548.52
2019-05-17T06:26:03.864Z,100550.77
2019-05-17T06:28:33.419Z,100547.48
2019-05-17T06:31:02.834Z,100551.83
2019-05-17T06:33:34.705Z,100546.77
2019-05-17T06:36:02.933Z,100547.28
2019-05-17T06:38:32.833Z,100543.27
2019-05-17T06:41:01.824Z,100546.81
2019-05-17T06:43:32.232Z,100545.78
2019-05-17T06:46:01.957Z,100542.75
2019-05-17T06:51:08.508Z,100535.74
2019-05-17T06:53:37.780Z,100542.22
2019-05-17T06:56:06.803Z,100540.22
2019-05-17T06:58:35.655Z,100539.28
2019-05-17T07:01:04.446Z,100533.92
2019-05-17T07:03:33.162Z,100533.75
2019-05-17T07:06:03.782Z,100528.88
2019-05-17T07:08:32.684Z,100529.34
2019-05-17T07:11:01.779Z,100531.72
2019-05-17T07:13:30.452Z,100533.00
2019-05-17T07:15:59.690Z,100530.38
2019-05-17T07:18:30.081Z,100533.27
2019-05-17T07:23:39.638Z,100522.10
2019-05-17T07:26:09.791Z,100529.29
2019-05-17T07:28:40.405Z,100527.41
2019-05-17T07:31:10.174Z,100529.44
2019-05-17T07:33:39.961Z,100532.42
2019-05-17T07:36:10.193Z,100533.50
2019-05-17T07:38:39.632Z,100532.56
2019-05-17T07:41:10.062Z,100542.84
2019-05-17T07:43:40.549Z,100543.03
2019-05-17T07:46:09.684Z,100545.25
2019-05-17T07:51:16.007Z,100537.86
2019-05-17T07:53:44.654Z,100538.50
2019-05-17T07:56:13.316Z,100534.23
2019-05-17T07:58:42.449Z,100538.45
2019-05-17T08:01:11.547Z,100535.95
2019-05-17T08:03:40.780Z,100545.43
2019-05-17T08:08:50.114Z,100534.92
2019-05-17T08:11:19.653Z,100536.32
2019-05-17T08:13:50.495Z,100534.78
2019-05-17T08:19:00.388Z,100524.33
2019-05-17T08:21:30.594Z,100525.16
2019-05-17T08:24:00.148Z,100521.69
2019-05-17T08:29:14.974Z,100513.92
2019-05-17T08:31:47.007Z,100517.78
2019-05-17T08:37:01.808Z,100515.42
2019-05-17T08:42:33.051Z,100515.63
2019-05-17T08:47:51.048Z,100518.37
2019-05-17T08:50:22.506Z,100519.14
2019-05-17T08:52:59.816Z,100512.78
2019-05-17T08:55:34.059Z,100509.48
2019-05-17T09:00:50.738Z,100502.18
2019-05-17T09:03:30.331Z,100504.59
2019-05-17T09:06:02.422Z,100501.41
2019-05-17T09:11:27.260Z,100500.98
2019-05-17T09:14:02.121Z,100496.47
2019-05-17T09:19:16.564Z,100496.30
2019-05-17T09:21:53.565Z,100496.30
2019-05-17T09:24:26.066Z,100488.53
2019-05-17T09:26:59.889Z,100491.36
2019-05-17T09:29:33.647Z,100491.38
2019-05-17T09:34:49.868Z,100492.63
2019-05-17T09:40:17.176Z,100483.39
2019-05-17T09:42:52.097Z,100482.06
2019-05-17T09:45:23.120Z,100488.59
2019-05-17T09:50:36.040Z,100477.90
2019-05-17T09:55:53.896Z,100481.49
2019-05-17T09:58:36.108Z,100479.03
2019-05-17T10:01:03.132Z,100472.75
2019-05-17T10:03:39.722Z,100505.11
2019-05-17T10:06:12.580Z,100465.80
2019-05-17T10:08:51.210Z,100470.87
2019-05-17T10:14:28.206Z,100462.91
2019-05-17T10:16:53.915Z,100455.66
2019-05-17T10:22:13.764Z,100449.56
2019-05-17T10:27:41.907Z,100451.33
2019-05-17T10:30:20.928Z,100449.84
2019-05-17T10:35:34.930Z,100443.19
2019-05-17T10:40:49.878Z,100435.21
2019-05-17T10:46:11.254Z,100434.36
2019-05-17T10:48:49.900Z,100423.01
2019-05-17T10:54:21.152Z,100419.91
2019-05-17T10:56:55.767Z,100429.23
2019-05-17T11:02:19.493Z,100417.30
2019-05-17T11:07:30.819Z,100413.73
2019-05-17T11:10:24.398Z,100418.41
2019-05-17T11:15:44.286Z,100404.89
2019-05-17T11:18:24.180Z,100407.59
2019-05-17T11:21:04.849Z,100400.39
2019-05-17T11:26:28.437Z,100398.75
2019-05-17T11:28:59.218Z,100397.83
2019-05-17T11:34:14.539Z,100394.11
2019-05-17T11:36:45.860Z,100397.59
2019-05-17T11:39:19.616Z,100402.64
2019-05-17T11:41:52.918Z,100403.44
2019-05-17T11:44:30.166Z,100398.62
2019-05-17T11:49:54.088Z,100399.28
2019-05-17T11:55:07.695Z,100394.40
2019-05-17T11:57:43.144Z,100398.31
2019-05-17T12:02:59.110Z,100388.80
2019-05-17T12:05:42.114Z,100389.66
2019-05-17T12:08:20.887Z,100387.31
2019-05-17T12:10:56.524Z,100390.91
2019-05-17T12:13:28.395Z,100389.92
2019-05-17T12:18:57.918Z,100389.13
2019-05-17T12:21:38.313Z,100391.05
2019-05-17T12:24:16.358Z,100386.30
2019-05-17T12:27:01.098Z,100383.77
2019-05-17T12:32:27.296Z,100379.59
2019-05-17T12:35:01.142Z,100380.34
2019-05-17T12:40:17.483Z,100378.05
2019-05-17T12:42:56.736Z,100380.61
2019-05-17T12:45:27.778Z,100375.61
2019-05-17T12:50:40.204Z,100365.66
2019-05-17T12:53:16.723Z,100365.60
2019-05-17T12:55:54.643Z,100374.17
2019-05-17T13:01:14.901Z,100364.31
2019-05-17T13:06:31.718Z,100370.72
2019-05-17T13:09:05.850Z,100366.88
2019-05-17T13:14:21.745Z,100358.05
2019-05-17T13:16:52.941Z,100358.07
2019-05-17T13:19:26.765Z,100362.81
2019-05-17T13:22:03.348Z,100365.77
2019-05-17T13:24:36.913Z,100357.05
2019-05-17T13:30:00.760Z,100355.95
2019-05-17T13:32:37.516Z,100358.30
2019-05-17T13:38:07.989Z,100359.31
2019-05-17T13:40:44.634Z,100355.18
2019-05-17T13:43:20.162Z,100356.57
2019-05-17T13:45:58.884Z,100352.97
2019-05-17T13:48:34.371Z,100352.65
2019-05-17T13:51:06.687Z,100349.61
2019-05-17T13:53:49.405Z,100352.53
2019-05-17T13:58:51.857Z,100340.12
2019-05-17T14:04:23.077Z,100336.81
2019-05-17T14:09:48.182Z,100340.33
2019-05-17T14:12:20.764Z,100339.31
2019-05-17T14:14:51.564Z,100340.48
2019-05-17T14:17:26.221Z,100335.87
2019-05-17T14:20:05.644Z,100339.27
2019-05-17T14:22:36.957Z,100336.00
2019-05-17T14:27:59.661Z,100329.84
2019-05-17T14:30:38.615Z,100336.41
2019-05-17T14:33:14.007Z,100333.41
2019-05-17T14:38:40.028Z,100329.48
2019-05-17T14:41:25.166Z,100333.31
2019-05-17T14:44:08.313Z,100329.19
2019-05-17T14:49:35.258Z,100328.20
2019-05-17T14:52:13.045Z,100325.62
2019-05-17T14:54:58.422Z,100319.09
2019-05-17T15:00:34.588Z,100325.47
2019-05-17T15:03:13.018Z,100306.75
2019-05-17T15:05:47.949Z,100314.05
2019-05-17T15:11:21.281Z,100303.05
2019-05-17T15:19:51.588Z,100300.70
2019-05-17T15:22:35.061Z,100300.69
2019-05-17T15:25:14.961Z,100300.80
2019-05-17T15:30:50.116Z,100291.33
2019-05-17T15:33:46.307Z,100295.00
2019-05-17T15:36:31.892Z,100295.56
2019-05-17T15:39:09.000Z,100295.66
2019-05-17T15:42:10.823Z,100289.72
2019-05-17T15:48:09.233Z,100277.56
2019-05-17T15:50:44.064Z,100283.19
2019-05-17T15:53:26.211Z,100272.56
2019-05-17T15:56:02.831Z,100273.20
2019-05-17T16:01:23.374Z,100267.22
2019-05-17T16:04:17.213Z,100267.83
2019-05-17T16:07:07.030Z,100274.52
2019-05-17T16:13:02.551Z,100254.97
2019-05-17T16:15:35.377Z,100253.75
2019-05-17T16:18:19.352Z,100249.14
2019-05-17T16:21:03.788Z,100251.92
2019-05-17T16:26:35.208Z,100243.18
2019-05-17T16:29:35.525Z,100245.73
2019-05-17T16:32:21.751Z,100238.34
2019-05-17T16:37:41.255Z,100236.75
2019-05-17T16:40:26.519Z,100234.80
2019-05-17T16:43:17.993Z,100233.97
2019-05-17T16:46:03.379Z,100234.34
2019-05-17T16:51:35.312Z,100231.27
2019-05-17T16:57:07.292Z,100225.08
2019-05-17T16:59:53.367Z,100224.59
2019-05-17T17:05:30.744Z,100220.22
2019-05-17T17:08:23.550Z,100218.89
2019-05-17T17:11:05.188Z,100213.44
2019-05-17T17:13:44.314Z,100218.17
2019-05-17T17:19:11.504Z,100211.27
2019-05-17T17:21:47.904Z,100211.45
2019-05-17T17:27:40.578Z,100205.53
2019-05-17T17:30:12.788Z,100213.44
2019-05-17T17:35:39.815Z,100204.22
2019-05-17T17:38:16.542Z,100204.88
2019-05-17T17:44:00.136Z,100202.63
2019-05-17T17:47:09.673Z,100198.35
2019-05-17T17:50:06.120Z,100202.95
2019-05-17T17:55:49.861Z,100203.56
2019-05-17T18:01:46.270Z,100199.19
2019-05-17T18:04:20.447Z,100201.48
2019-05-17T18:10:11.322Z,100195.17
2019-05-17T18:12:52.207Z,100204.66
2019-05-17T18:15:41.004Z,100198.32
2019-05-17T18:18:19.943Z,100200.27
2019-05-17T18:23:49.750Z,100206.68
2019-05-17T18:26:38.814Z,100203.45
2019-05-17T18:34:56.499Z,100214.48
2019-05-17T18:37:29.713Z,100216.02
2019-05-17T18:40:09.325Z,100216.22
2019-05-17T18:42:45.389Z,100218.42
2019-05-17T18:48:03.529Z,100216.52
2019-05-17T18:50:39.354Z,100221.58
2019-05-17T18:53:16.935Z,100223.75
2019-05-17T18:56:01.681Z,100219.68
2019-05-17T18:58:53.535Z,100218.62
2019-05-17T19:05:23.064Z,100221.13
2019-05-17T19:08:14.996Z,100224.68
2019-05-17T19:14:24.441Z,100225.73
2019-05-17T19:20:23.857Z,100232.84
2019-05-17T19:23:40.546Z,100231.85
2019-05-17T19:29:27.955Z,100234.16
2019-05-17T19:35:07.997Z,100233.86
2019-05-17T19:38:18.736Z,100239.11
2019-05-17T19:43:51.073Z,100235.16
2019-05-17T19:46:47.397Z,100237.89
2019-05-17T19:49:29.206Z,100238.69
2019-05-17T19:55:09.669Z,100236.03
2019-05-17T19:58:21.207Z,100243.84
2019-05-17T20:01:13.938Z,100246.07
2019-05-17T20:04:20.959Z,100248.62
2019-05-17T20:10:19.773Z,100240.58
2019-05-17T20:13:46.054Z,100240.30
2019-05-17T20:17:04.921Z,100239.16
2019-05-17T20:20:10.076Z,100233.39
2019-05-17T20:26:13.913Z,100235.02
2019-05-17T20:35:17.959Z,100223.98
2019-05-17T20:38:44.542Z,100229.66
2019-05-17T20:44:36.234Z,100223.41
2019-05-17T20:47:43.984Z,100221.20
2019-05-17T20:50:31.563Z,100224.55
2019-05-17T20:56:33.456Z,100219.56
2019-05-17T20:59:15.497Z,100214.25
2019-05-17T21:01:57.239Z,100220.77
2019-05-17T21:04:47.937Z,100219.81
2019-05-17T21:10:22.191Z,100209.97
2019-05-17T21:13:14.165Z,100214.45
2019-05-17T21:16:00.749Z,100210.71
2019-05-17T21:21:52.371Z,100205.59
2019-05-17T21:27:55.214Z,100208.59
2019-05-17T21:30:41.257Z,100204.02
2019-05-17T21:33:31.784Z,100213.30
2019-05-17T21:39:21.583Z,100199.61
2019-05-17T21:42:23.215Z,100200.62
2019-05-17T21:48:20.233Z,100195.29
2019-05-17T21:53:59.586Z,100191.64
2019-05-17T21:56:37.338Z,100203.30
2019-05-17T21:59:41.330Z,100201.03
2019-05-17T22:02:30.727Z,100204.73
2019-05-17T22:05:19.992Z,100203.41
2019-05-17T22:08:13.306Z,100200.63
2019-05-17T22:11:17.988Z,100201.20
2019-05-17T22:17:25.554Z,100197.42
2019-05-17T22:23:08.293Z,100196.70
2019-05-17T22:26:04.829Z,100197.76
2019-05-17T22:31:39.070Z,100197.76
2019-05-17T22:38:00.219Z,100206.26
2019-05-17T22:40:51.862Z,100208.86
2019-05-17T22:43:45.043Z,100206.37
2019-05-17T22:52:31.485Z,100203.05
2019-05-17T22:55:18.490Z,100197.94
2019-05-17T23:01:33.994Z,100196.23
2019-05-17T23:04:55.262Z,100199.84
2019-05-17T23:11:15.816Z,100192.16
2019-05-17T23:14:03.514Z,100198.15
2019-05-17T23:20:26.392Z,100193.33
2019-05-17T23:23:45.100Z,100187.23
2019-05-17T23:26:57.698Z,100187.80
2019-05-17T23:33:14.316Z,100177.16
2019-05-17T23:36:16.293Z,100179.49
2019-05-17T23:39:37.728Z,100175.15
2019-05-17T23:42:14.141Z,100172.95
2019-05-17T23:45:14.380Z,100166.34
2019-05-17T23:48:11.036Z,100166.81
2019-05-17T23:50:57.850Z,100164.26
2019-05-17T23:57:10.464Z,100162.99
